Time;durP1;ratioP1;P1;durP2;ratioP2;P2;SDS_P1;SDS_P2;PMS_P1;PMS_P2;Temp;Humidity;BMP_temperature;BMP_pressure;BME280_temperature;BME280_humidity;BME280_pressure;Samples;Min_cycle;Max_cycle;Signal;HPM_P1;HPM_P2
2021/11/27 00:00:39;;;;;;;2.13;1.52;;;;;;;19.61;44.10;98337.94;5060743;28;20395;-75
2021/11/27 00:03:05;;;;;;;2.00;1.75;;;;;;;19.61;44.11;98350.31;5060141;28;20644;-75
2021/11/27 00:05:34;;;;;;;3.97;1.90;;;;;;;19.58;44.10;98345.53;5060481;28;20139;-76
2021/11/27 00:08:01;;;;;;;1.65;1.55;;;;;;;19.54;44.15;98350.44;5054454;28;20703;-75
2021/11/27 00:10:29;;;;;;;2.55;1.80;;;;;;;19.54;44.20;98341.72;5060719;28;20036;-76
2021/11/27 00:12:55;;;;;;;2.25;1.90;;;;;;;19.50;44.15;98346.66;5057665;28;20557;-76
2021/11/27 00:15:23;;;;;;;2.28;1.70;;;;;;;19.48;44.17;98350.56;5058198;28;20025;-75
2021/11/27 00:17:49;;;;;;;2.28;1.75;;;;;;;19.49;44.02;98349.53;5060117;28;20383;-76
2021/11/27 00:20:28;;;;;;;2.83;1.70;;;;;;;19.45;44.28;98351.84;5058387;28;20075;-76
2021/11/27 00:22:54;;;;;;;2.10;1.83;;;;;;;19.45;44.03;98343.13;5053099;28;20411;-76
2021/11/27 00:25:19;;;;;;;2.00;1.90;;;;;;;19.44;44.02;98344.19;5056072;28;20090;-75
2021/11/27 00:27:46;;;;;;;2.40;1.70;;;;;;;19.37;44.23;98346.94;5058136;28;20051;-75
2021/11/27 00:30:15;;;;;;;2.05;1.80;;;;;;;19.34;44.30;98344.78;5063422;28;20136;-75
2021/11/27 00:32:41;;;;;;;3.20;1.90;;;;;;;19.30;44.31;98341.81;5063625;28;20052;-76
2021/11/27 00:35:07;;;;;;;2.63;1.70;;;;;;;19.28;44.13;98340.47;5061312;28;20475;-75
2021/11/27 00:37:33;;;;;;;3.00;2.10;;;;;;;19.22;44.40;98342.22;5044047;28;20033;-76
2021/11/27 00:39:58;;;;;;;4.22;1.73;;;;;;;19.19;44.66;98336.56;5079468;28;20090;-76
2021/11/27 00:42:24;;;;;;;1.95;1.83;;;;;;;19.14;44.54;98331.22;5065146;28;20041;-75
2021/11/27 00:44:50;;;;;;;2.58;2.00;;;;;;;19.09;44.77;98326.66;5058639;28;20449;-75
2021/11/27 00:47:16;;;;;;;2.42;1.80;;;;;;;19.07;44.76;98335.84;5060837;28;20024;-76
2021/11/27 00:49:41;;;;;;;3.40;1.77;;;;;;;19.08;44.60;98334.81;5062124;28;20044;-76
2021/11/27 00:52:07;;;;;;;1.83;1.63;;;;;;;19.05;44.67;98338.72;5062699;28;20643;-76
2021/11/27 00:54:33;;;;;;;2.15;1.95;;;;;;;19.00;44.87;98339.38;5061025;28;20090;-75
2021/11/27 00:56:59;;;;;;;1.70;1.60;;;;;;;19.02;44.77;98337.31;5057804;28;20858;-76
2021/11/27 00:59:25;;;;;;;2.10;1.60;;;;;;;18.94;44.93;98329.78;5061672;28;20747;-75
2021/11/27 01:01:52;;;;;;;1.73;1.63;;;;;;;18.97;44.90;98339.06;5064078;28;20093;-75
2021/11/27 01:04:17;;;;;;;2.17;1.70;;;;;;;18.94;44.96;98342.97;5077312;28;20468;-76
2021/11/27 01:06:43;;;;;;;2.95;1.80;;;;;;;18.85;44.94;98330.38;5063584;28;20082;-75
2021/11/27 01:09:12;;;;;;;1.73;1.52;;;;;;;18.86;44.92;98337.28;5075909;28;20043;-75
2021/11/27 01:11:44;;;;;;;1.98;1.73;;;;;;;18.84;44.73;98332.22;5061240;28;20051;-75
2021/11/27 01:14:14;;;;;;;2.42;1.98;;;;;;;18.81;45.08;98332.69;5064010;28;20113;-75
2021/11/27 01:16:45;;;;;;;2.00;1.77;;;;;;;18.77;45.27;98331.53;5062804;28;20762;-75
2021/11/27 01:19:12;;;;;;;2.58;2.13;;;;;;;18.78;45.18;98342.88;5066579;28;20036;-75
2021/11/27 01:21:42;;;;;;;2.00;1.77;;;;;;;18.75;45.26;98344.16;5063549;28;20028;-75
2021/11/27 01:24:12;;;;;;;2.20;2.00;;;;;;;18.70;45.45;98347.50;5064923;28;20036;-75
2021/11/27 01:26:38;;;;;;;2.42;2.03;;;;;;;18.71;45.29;98343.84;5096724;28;20060;-75
2021/11/27 01:29:05;;;;;;;3.00;1.80;;;;;;;18.70;45.21;98346.69;5064219;28;20383;-75
2021/11/27 01:31:32;;;;;;;2.13;1.80;;;;;;;18.69;45.14;98338.00;5065140;28;20052;-75
2021/11/27 01:33:58;;;;;;;2.20;1.63;;;;;;;18.63;45.30;98346.00;5079777;28;20032;-75
2021/11/27 01:36:24;;;;;;;1.85;1.65;;;;;;;18.68;45.13;98348.78;5078350;28;20540;-75
2021/11/27 01:38:49;;;;;;;1.85;1.75;;;;;;;18.60;45.28;98341.16;5060713;28;20656;-75
2021/11/27 01:41:15;;;;;;;2.10;1.90;;;;;;;18.60;45.48;98346.44;5061571;28;20038;-76
2021/11/27 01:43:46;;;;;;;2.65;1.63;;;;;;;18.57;45.57;98339.81;5062427;28;20032;-75
2021/11/27 01:46:12;;;;;;;1.60;1.50;;;;;;;18.55;45.46;98348.97;5059338;28;20689;-75
2021/11/27 01:48:38;;;;;;;2.15;1.63;;;;;;;18.54;45.42;98347.38;5058976;28;20178;-75
2021/11/27 01:51:14;;;;;;;2.55;2.00;;;;;;;18.52;45.65;98352.06;5060115;28;20158;-76
2021/11/27 01:53:51;;;;;;;2.47;2.03;;;;;;;18.50;45.52;98347.03;5061046;28;20040;-76
2021/11/27 01:56:23;;;;;;;3.20;1.70;;;;;;;18.51;45.49;98358.38;5054171;28;20028;-76
2021/11/27 01:58:49;;;;;;;2.20;1.90;;;;;;;18.47;45.65;98354.56;5073432;28;20063;-75
2021/11/27 02:01:20;;;;;;;2.50;1.63;;;;;;;18.41;45.80;98349.19;5058582;28;20043;-76
2021/11/27 02:03:48;;;;;;;3.08;1.83;;;;;;;18.46;45.46;98360.88;5075400;28;20679;-76
2021/11/27 02:06:24;;;;;;;1.90;1.70;;;;;;;18.43;45.43;98362.16;5056129;28;20028;-75
2021/11/27 02:08:52;;;;;;;2.10;1.70;;;;;;;18.44;45.58;98363.75;5061962;28;20393;-76
2021/11/27 02:11:24;;;;;;;2.67;1.90;;;;;;;18.36;45.63;98364.09;5076012;28;20426;-75
2021/11/27 02:13:50;;;;;;;1.88;1.70;;;;;;;18.34;45.65;98361.72;5072619;28;20440;-75
2021/11/27 02:16:17;;;;;;;1.80;1.65;;;;;;;18.30;45.74;98365.00;5056577;28;20233;-75
2021/11/27 02:18:43;;;;;;;1.83;1.73;;;;;;;18.30;45.81;98367.63;5072724;28;20036;-75
2021/11/27 02:21:14;;;;;;;1.65;1.50;;;;;;;18.30;45.88;98378.19;5042765;28;20063;-74
2021/11/27 02:23:40;;;;;;;1.55;1.45;;;;;;;18.30;45.88;98378.19;5073885;28;20032;-75
2021/11/27 02:26:08;;;;;;;2.65;1.70;;;;;;;18.29;45.89;98371.31;5075999;28;20576;-74
2021/11/27 02:28:44;;;;;;;1.55;1.45;;;;;;;18.29;45.76;98373.94;5056385;28;20089;-75
2021/11/27 02:31:10;;;;;;;3.08;1.58;;;;;;;18.30;45.84;98365.81;5055806;28;20082;-74
2021/11/27 02:33:36;;;;;;;2.45;1.88;;;;;;;18.29;45.69;98373.94;5059066;28;20036;-75
2021/11/27 02:36:03;;;;;;;2.20;1.63;;;;;;;18.29;46.12;98376.56;5058441;28;20043;-75
2021/11/27 02:38:28;;;;;;;2.05;1.83;;;;;;;18.28;45.76;98367.88;5057491;28;20347;-75
2021/11/27 02:40:54;;;;;;;2.25;1.88;;;;;;;18.22;45.86;98365.34;5071163;28;20041;-75
2021/11/27 02:43:21;;;;;;;2.30;1.80;;;;;;;18.23;45.86;98359.84;5073124;28;20051;-75
2021/11/27 02:45:47;;;;;;;1.67;1.58;;;;;;;18.22;45.69;98355.63;5059685;28;20206;-75
2021/11/27 02:48:13;;;;;;;2.38;1.88;;;;;;;18.23;45.82;98356.41;5059533;28;20167;-75
2021/11/27 02:50:38;;;;;;;1.70;1.50;;;;;;;18.18;45.93;98357.13;5072089;28;20063;-75
2021/11/27 02:53:04;;;;;;;2.50;1.50;;;;;;;18.21;45.97;98361.13;5059319;28;20036;-75
2021/11/27 02:55:30;;;;;;;2.40;1.70;;;;;;;18.15;45.84;98351.50;5056061;28;20786;-75
2021/11/27 02:57:56;;;;;;;2.75;1.60;;;;;;;18.17;46.01;98362.63;5058508;28;20044;-75
2021/11/27 03:00:23;;;;;;;2.67;1.75;;;;;;;18.09;46.11;98359.28;5056156;28;20032;-75
2021/11/27 03:02:50;;;;;;;1.88;1.67;;;;;;;18.12;46.06;98364.06;5058216;28;20040;-75
2021/11/27 03:05:17;;;;;;;1.70;1.52;;;;;;;18.09;45.99;98369.00;5056259;28;20863;-76
2021/11/27 03:07:43;;;;;;;3.58;1.48;;;;;;;18.14;46.09;98370.97;5057085;28;20487;-76
2021/11/27 03:10:11;;;;;;;2.55;1.60;;;;;;;18.09;46.19;98376.91;5058639;28;20115;-76
2021/11/27 03:12:39;;;;;;;1.73;1.63;;;;;;;18.11;46.06;98383.53;5058113;28;20075;-75
2021/11/27 03:15:12;;;;;;;1.50;1.40;;;;;;;18.09;46.11;98380.34;5055927;28;20052;-75
2021/11/27 03:17:38;;;;;;;1.92;1.73;;;;;;;18.04;46.09;98372.31;5074413;28;20028;-75
2021/11/27 03:20:06;;;;;;;1.83;1.67;;;;;;;18.02;45.92;98365.69;5059654;28;20028;-75
2021/11/27 03:22:33;;;;;;;4.55;1.67;;;;;;;18.08;46.01;98384.00;5075356;28;20090;-75
2021/11/27 03:24:58;;;;;;;2.20;1.70;;;;;;;18.06;45.99;98380.78;5059308;28;20975;-74
2021/11/27 03:27:24;;;;;;;1.95;1.70;;;;;;;18.01;45.95;98383.31;5069090;28;20039;-75
2021/11/27 03:29:50;;;;;;;2.13;1.83;;;;;;;18.03;45.97;98383.09;5073519;28;20102;-75
2021/11/27 03:32:18;;;;;;;2.53;1.42;;;;;;;18.04;46.10;98388.13;5071604;28;20048;-75
2021/11/27 03:34:57;;;;;;;2.30;1.75;;;;;;;17.96;46.32;98388.47;5074384;28;20043;-75
2021/11/27 03:37:30;;;;;;;1.58;1.48;;;;;;;17.98;46.16;98396.13;5053840;28;20033;-75
2021/11/27 03:39:58;;;;;;;2.15;1.42;;;;;;;18.01;46.04;98398.31;5042606;28;20631;-75
2021/11/27 03:42:24;;;;;;;1.52;1.42;;;;;;;18.02;46.05;98398.09;5055478;28;20028;-75
2021/11/27 03:44:50;;;;;;;1.73;1.63;;;;;;;18.02;46.15;98400.72;5056437;28;20048;-75
2021/11/27 03:47:17;;;;;;;2.28;2.00;;;;;;;17.99;46.15;98403.81;5058357;28;20036;-76
2021/11/27 03:49:43;;;;;;;1.90;1.70;;;;;;;17.97;46.19;98402.44;5072880;28;20044;-75
2021/11/27 03:52:11;;;;;;;1.90;1.75;;;;;;;17.98;46.06;98410.09;5057731;28;20037;-75
2021/11/27 03:54:39;;;;;;;1.58;1.48;;;;;;;17.96;46.04;98414.78;5057071;28;20040;-76
2021/11/27 03:57:05;;;;;;;1.65;1.50;;;;;;;17.95;46.06;98412.34;5047986;28;20036;-76
2021/11/27 03:59:32;;;;;;;2.45;1.70;;;;;;;17.88;46.18;98416.94;5058359;28;20056;-75
2021/11/27 04:01:57;;;;;;;2.15;1.80;;;;;;;17.90;46.20;98412.25;5056853;28;20614;-75
2021/11/27 04:04:23;;;;;;;2.35;1.60;;;;;;;17.87;46.38;98410.06;5059871;28;20033;-76
2021/11/27 04:06:49;;;;;;;1.88;1.70;;;;;;;17.90;46.14;98420.13;5038296;28;20059;-76
2021/11/27 04:09:15;;;;;;;2.50;1.80;;;;;;;17.87;46.15;98426.66;5076539;28;20571;-76
2021/11/27 04:11:41;;;;;;;2.20;1.85;;;;;;;17.90;46.18;98425.41;5056701;28;20548;-76
2021/11/27 04:14:16;;;;;;;1.80;1.70;;;;;;;17.90;46.05;98428.03;5044399;28;20051;-76
2021/11/27 04:16:50;;;;;;;1.77;1.67;;;;;;;17.88;46.39;98424.81;5073906;28;20147;-76
2021/11/27 04:19:16;;;;;;;1.77;1.67;;;;;;;17.84;46.34;98421.84;5057270;28;20037;-75
2021/11/27 04:21:41;;;;;;;2.47;1.90;;;;;;;17.87;46.15;98423.22;5060021;28;20025;-75
2021/11/27 04:24:07;;;;;;;2.05;1.77;;;;;;;17.83;46.39;98425.50;5059444;28;20717;-76
2021/11/27 04:26:32;;;;;;;1.58;1.48;;;;;;;17.82;46.62;98418.63;5033125;28;20123;-75
2021/11/27 04:28:58;;;;;;;2.42;1.60;;;;;;;17.84;46.29;98429.75;5055661;28;20040;-75
2021/11/27 04:31:25;;;;;;;1.73;1.63;;;;;;;17.84;46.13;98436.84;5043975;28;20075;-75
2021/11/27 04:33:52;;;;;;;1.60;1.50;;;;;;;17.81;46.32;98435.47;5056460;28;20031;-75
2021/11/27 04:36:18;;;;;;;1.88;1.63;;;;;;;17.81;46.28;98430.19;5057268;28;20087;-75
2021/11/27 04:38:47;;;;;;;1.70;1.60;;;;;;;17.80;46.35;98434.66;5072823;28;20098;-75
2021/11/27 04:41:14;;;;;;;2.50;1.90;;;;;;;17.77;46.28;98437.75;5056613;28;20048;-74
2021/11/27 04:43:40;;;;;;;1.67;1.58;;;;;;;17.77;46.31;98437.75;5056927;28;20124;-75
2021/11/27 04:46:06;;;;;;;1.58;1.40;;;;;;;17.77;46.34;98447.44;5057047;28;20119;-75
2021/11/27 04:48:32;;;;;;;1.70;1.60;;;;;;;17.70;46.22;98444.09;5069665;28;20093;-75
2021/11/27 04:50:59;;;;;;;1.88;1.63;;;;;;;17.72;46.49;98442.06;5056722;28;20064;-74
2021/11/27 04:53:26;;;;;;;1.67;1.50;;;;;;;17.75;46.16;98452.94;5052739;28;20028;-75
2021/11/27 04:55:52;;;;;;;1.75;1.65;;;;;;;17.73;46.32;98455.00;5055066;28;20101;-74
2021/11/27 04:58:19;;;;;;;2.33;1.60;;;;;;;17.72;46.46;98458.66;5056998;28;20024;-75
2021/11/27 05:00:49;;;;;;;1.65;1.55;;;;;;;17.75;46.29;98462.66;5038230;28;20113;-75
2021/11/27 05:03:23;;;;;;;2.72;1.83;;;;;;;17.72;46.38;98468.38;5069555;28;20032;-75
2021/11/27 05:05:49;;;;;;;1.75;1.65;;;;;;;17.68;46.56;98468.03;5070527;28;20040;-75
2021/11/27 05:08:16;;;;;;;3.42;1.60;;;;;;;17.66;46.42;98464.78;5073568;28;20139;-75
2021/11/27 05:10:43;;;;;;;1.95;1.55;;;;;;;17.64;46.29;98466.84;5057215;28;20059;-75
2021/11/27 05:13:09;;;;;;;1.90;1.70;;;;;;;17.65;46.48;98465.81;5071195;28;20044;-75
2021/11/27 05:15:38;;;;;;;2.15;1.70;;;;;;;17.65;46.36;98475.53;5072616;28;20036;-75
2021/11/27 05:18:07;;;;;;;2.20;1.60;;;;;;;17.64;46.47;98476.56;5075716;28;20071;-75
2021/11/27 05:20:52;;;;;;;1.55;1.45;;;;;;;17.59;46.36;98474.56;5059102;28;20083;-75
2021/11/27 05:23:17;;;;;;;2.10;1.85;;;;;;;17.61;46.51;98485.72;5061134;28;20037;-75
2021/11/27 05:25:44;;;;;;;1.73;1.63;;;;;;;17.69;46.38;98480.16;5055452;28;20032;-75
2021/11/27 05:28:28;;;;;;;1.52;1.38;;;;;;;17.75;46.26;98486.34;5058150;28;20440;-74
2021/11/27 05:31:29;;;;;;;1.50;1.35;;;;;;;17.82;45.93;98492.34;5015808;28;20045;-75
2021/11/27 05:36:35;;;;;;;2.45;1.80;;;;;;;17.92;45.95;98483.91;5074976;28;20044;-74
2021/11/27 05:39:01;;;;;;;1.98;1.75;;;;;;;17.99;45.73;98487.28;5060392;28;20041;-76
2021/11/27 05:41:27;;;;;;;1.70;1.60;;;;;;;18.02;45.62;98481.56;5077572;28;20041;-75
2021/11/27 05:43:57;;;;;;;1.63;1.52;;;;;;;18.06;45.39;98474.81;5059384;28;20443;-76
2021/11/27 05:46:23;;;;;;;1.70;1.60;;;;;;;18.24;45.63;98487.09;5078620;28;20043;-76
2021/11/27 05:48:49;;;;;;;1.55;1.45;;;;;;;18.37;45.38;98489.56;5071314;28;20040;-76
2021/11/27 05:51:29;;;;;;;1.55;1.40;;;;;;;18.49;45.44;98490.38;5061121;28;20055;-77
2021/11/27 05:53:56;;;;;;;1.73;1.60;;;;;;;18.58;45.38;98494.28;5058293;28;20044;-76
2021/11/27 05:56:21;;;;;;;2.25;2.00;;;;;;;18.65;45.15;98492.34;5059035;28;20545;-76
2021/11/27 05:58:48;;;;;;;2.25;1.83;;;;;;;18.68;45.42;98489.28;5063054;28;20033;-76
2021/11/27 06:01:13;;;;;;;1.52;1.40;;;;;;;18.78;45.27;98501.09;5057594;28;20045;-75
2021/11/27 06:03:39;;;;;;;1.50;1.40;;;;;;;18.84;45.37;98500.97;5059143;28;20036;-75
2021/11/27 06:06:04;;;;;;;1.50;1.40;;;;;;;18.85;45.25;98497.31;5059043;28;20870;-75
2021/11/27 06:08:30;;;;;;;1.98;1.77;;;;;;;18.93;45.22;98502.25;5061101;28;20675;-76
2021/11/27 06:10:56;;;;;;;1.88;1.50;;;;;;;18.97;45.24;98502.56;5059498;28;20044;-75
2021/11/27 06:13:22;;;;;;;1.60;1.50;;;;;;;19.00;45.23;98502.91;5061736;28;20166;-76
2021/11/27 06:15:47;;;;;;;1.63;1.45;;;;;;;19.01;45.38;98506.34;5059965;28;20541;-76
2021/11/27 06:18:13;;;;;;;1.20;1.20;;;;;;;19.05;45.25;98504.09;5060838;28;20037;-75
2021/11/27 06:20:39;;;;;;;2.30;1.30;;;;;;;19.08;45.09;98499.16;5060105;28;20044;-75
2021/11/27 06:23:04;;;;;;;2.22;1.50;;;;;;;19.12;45.09;98502.91;5060368;28;20021;-76
2021/11/27 06:25:30;;;;;;;1.95;1.45;;;;;;;19.15;44.90;98513.00;5054275;28;20473;-76
2021/11/27 06:27:55;;;;;;;1.55;1.27;;;;;;;19.13;44.90;98501.09;5054464;28;20047;-76
2021/11/27 06:30:22;;;;;;;1.52;1.42;;;;;;;19.18;44.86;98501.19;5055375;28;20571;-74
2021/11/27 06:32:48;;;;;;;1.35;1.25;;;;;;;19.17;44.75;98513.56;5059571;28;20122;-76
2021/11/27 06:35:14;;;;;;;1.50;1.40;;;;;;;19.14;44.77;98514.03;5059049;28;20569;-76
2021/11/27 06:37:40;;;;;;;2.08;1.75;;;;;;;19.18;44.78;98527.56;5055739;28;20032;-76
2021/11/27 06:40:07;;;;;;;1.52;1.40;;;;;;;19.16;44.89;98534.91;5057482;28;20047;-76
2021/11/27 06:42:40;;;;;;;1.40;1.30;;;;;;;19.13;45.02;98538.81;5076334;28;20629;-76
2021/11/27 06:45:25;;;;;;;1.23;1.17;;;;;;;19.10;44.95;98541.13;5044073;28;20047;-75
2021/11/27 06:48:03;;;;;;;1.63;1.50;;;;;;;19.13;44.99;98544.09;5042673;28;20050;-75
2021/11/27 06:50:28;;;;;;;1.27;1.17;;;;;;;19.17;44.98;98554.97;5054214;28;20402;-76
2021/11/27 06:52:54;;;;;;;1.73;1.42;;;;;;;19.18;44.67;98554.75;5059772;28;20062;-75
2021/11/27 06:55:20;;;;;;;1.40;1.30;;;;;;;19.27;44.73;98568.41;5073529;28;20036;-75
2021/11/27 06:57:48;;;;;;;1.95;1.27;;;;;;;19.33;44.63;98562.22;5073214;28;20040;-75
2021/11/27 07:00:14;;;;;;;1.40;1.30;;;;;;;19.39;44.37;98563.94;5051047;28;20036;-75
2021/11/27 07:03:12;;;;;;;1.35;1.25;;;;;;;19.38;44.73;98559.66;5057581;28;20056;-75
2021/11/27 07:06:12;;;;;;;1.60;1.50;;;;;;;19.45;44.41;98560.38;5055272;28;20805;-76
2021/11/27 07:08:37;;;;;;;1.65;1.40;;;;;;;19.48;44.42;98559.91;5054197;28;20032;-75
2021/11/27 07:11:20;;;;;;;1.45;1.17;;;;;;;19.51;44.17;98574.47;5059212;28;20067;-76
2021/11/27 07:13:46;;;;;;;1.48;1.27;;;;;;;19.53;44.16;98581.13;5074669;28;20075;-76
2021/11/27 07:16:11;;;;;;;0.95;0.95;;;;;;;19.57;44.09;98576.22;5060482;28;20086;-75
2021/11/27 07:18:38;;;;;;;2.58;1.50;;;;;;;19.59;44.11;98590.00;5061532;28;20128;-75
2021/11/27 07:21:05;;;;;;;1.40;1.30;;;;;;;19.59;44.38;98582.06;5057477;28;20037;-75
2021/11/27 07:23:31;;;;;;;1.30;1.20;;;;;;;19.57;44.13;98590.22;5055296;28;20171;-76
2021/11/27 07:25:57;;;;;;;1.02;1.02;;;;;;;19.58;44.35;98597.13;5055817;28;20044;-76
2021/11/27 07:28:28;;;;;;;1.88;1.30;;;;;;;19.59;44.16;98597.91;5055160;28;20048;-76
2021/11/27 07:30:53;;;;;;;1.10;1.05;;;;;;;19.57;44.29;98598.16;5058464;28;20055;-75
2021/11/27 07:33:20;;;;;;;1.30;1.20;;;;;;;19.55;44.24;98600.19;5062273;28;20102;-75
2021/11/27 07:35:46;;;;;;;1.40;1.30;;;;;;;19.52;44.33;98605.91;5061525;28;20071;-76
2021/11/27 07:38:12;;;;;;;1.25;1.15;;;;;;;19.47;44.48;98600.53;5058795;28;20037;-75
2021/11/27 07:40:37;;;;;;;1.10;1.10;;;;;;;19.47;44.45;98610.28;5061005;28;21476;-76
2021/11/27 07:43:05;;;;;;;1.00;1.00;;;;;;;19.43;44.40;98609.16;5062448;28;20484;-75
2021/11/27 07:45:34;;;;;;;1.20;1.10;;;;;;;19.43;44.46;98617.06;5056513;28;20044;-76
2021/11/27 07:48:16;;;;;;;0.98;0.98;;;;;;;19.41;44.50;98613.84;5057776;28;20063;-76
2021/11/27 07:51:01;;;;;;;1.42;1.13;;;;;;;19.42;44.38;98610.97;5056361;28;20588;-76
2021/11/27 07:53:36;;;;;;;1.40;1.30;;;;;;;19.49;44.45;98626.69;5054091;28;20245;-76
2021/11/27 07:56:02;;;;;;;1.30;1.20;;;;;;;19.50;44.41;98615.91;5059201;28;20040;-76
2021/11/27 07:58:28;;;;;;;1.23;1.13;;;;;;;19.57;44.18;98626.38;5050985;28;20561;-76
2021/11/27 08:00:53;;;;;;;1.52;1.20;;;;;;;19.54;44.17;98616.25;5051083;28;20102;-75
2021/11/27 08:03:19;;;;;;;1.25;1.15;;;;;;;19.61;43.98;98627.53;5060321;28;20043;-76
2021/11/27 08:05:44;;;;;;;1.50;1.40;;;;;;;19.65;44.08;98636.59;5060586;28;20039;-76
2021/11/27 08:08:10;;;;;;;1.05;1.00;;;;;;;19.67;44.11;98639.78;5053711;28;20056;-75
2021/11/27 08:10:35;;;;;;;3.30;1.33;;;;;;;19.70;43.94;98635.88;5052372;28;20116;-75
2021/11/27 08:13:01;;;;;;;1.00;1.00;;;;;;;19.70;44.06;98636.69;5058553;28;20699;-75
2021/11/27 08:15:26;;;;;;;1.25;1.15;;;;;;;19.74;43.93;98656.31;5058231;28;20040;-76
2021/11/27 08:17:52;;;;;;;1.15;1.13;;;;;;;19.75;43.89;98657.94;5058916;28;20101;-76
2021/11/27 08:20:18;;;;;;;1.40;1.10;;;;;;;19.76;43.95;98661.38;5050110;28;20044;-76
2021/11/27 08:22:45;;;;;;;1.27;1.17;;;;;;;19.76;44.04;98656.91;5053098;28;20411;-76
2021/11/27 08:25:12;;;;;;;0.95;0.95;;;;;;;19.76;44.03;98659.56;5058890;28;20036;-76
2021/11/27 08:27:37;;;;;;;1.15;1.15;;;;;;;19.74;44.06;98666.06;5059364;28;20036;-76
2021/11/27 08:30:07;;;;;;;1.10;1.00;;;;;;;19.74;43.91;98664.22;5061675;28;20033;-76
2021/11/27 08:32:33;;;;;;;0.90;0.90;;;;;;;19.72;44.11;98671.59;5057768;28;20040;-78
2021/11/27 08:35:00;;;;;;;1.33;1.23;;;;;;;19.69;44.12;98672.06;5058790;28;20074;-78
2021/11/27 08:37:26;;;;;;;0.90;0.90;;;;;;;19.67;44.12;98670.69;5055570;28;20033;-76
2021/11/27 08:39:52;;;;;;;1.30;1.10;;;;;;;19.66;44.07;98677.00;5059198;28;20063;-79
2021/11/27 08:42:21;;;;;;;0.80;0.80;;;;;;;19.57;44.32;98677.34;5059985;28;20872;-78
2021/11/27 08:44:48;;;;;;;2.22;1.58;;;;;;;19.57;44.46;98685.28;5057406;28;20048;-79
2021/11/27 08:47:13;;;;;;;1.20;1.08;;;;;;;19.55;44.34;98681.22;5057095;28;20490;-79
2021/11/27 08:49:40;;;;;;;2.58;1.23;;;;;;;19.58;44.29;98683.44;5060232;28;20040;-79
2021/11/27 08:52:06;;;;;;;1.10;1.00;;;;;;;19.58;44.24;98686.88;5059349;28;20140;-78
2021/11/27 08:54:32;;;;;;;1.00;1.00;;;;;;;19.65;44.18;98689.41;5059127;28;20393;-77
2021/11/27 08:56:58;;;;;;;1.48;1.38;;;;;;;19.71;43.97;98687.66;5058905;28;20024;-78
2021/11/27 08:59:23;;;;;;;1.08;1.02;;;;;;;19.75;43.94;98696.72;5062634;28;20093;-80
2021/11/27 09:01:53;;;;;;;0.82;0.82;;;;;;;19.79;44.09;98701.34;5058464;28;20047;-77
2021/11/27 09:04:19;;;;;;;1.42;1.25;;;;;;;19.79;43.83;98703.97;5060615;28;20051;-77
2021/11/27 09:06:45;;;;;;;1.30;1.20;;;;;;;19.78;43.87;98702.38;5059488;28;20106;-76
2021/11/27 09:09:11;;;;;;;1.98;1.10;;;;;;;19.75;44.04;98708.13;5059152;28;20052;-78
2021/11/27 09:11:37;;;;;;;1.00;1.00;;;;;;;19.72;44.06;98711.19;5058939;28;20493;-77
2021/11/27 09:14:04;;;;;;;1.00;1.00;;;;;;;19.72;44.05;98708.56;5057985;28;20043;-78
2021/11/27 09:16:30;;;;;;;1.30;1.20;;;;;;;19.70;44.06;98713.25;5058836;28;20093;-77
2021/11/27 09:18:56;;;;;;;0.90;0.90;;;;;;;19.71;44.05;98712.22;5062330;28;20066;-77
2021/11/27 09:21:22;;;;;;;1.13;1.02;;;;;;;19.72;44.07;98715.66;5060740;28;20451;-77
2021/11/27 09:23:47;;;;;;;1.33;1.23;;;;;;;19.74;43.75;98721.53;5060546;28;20051;-77
2021/11/27 09:26:14;;;;;;;1.33;1.17;;;;;;;19.73;43.94;98728.66;5060816;28;20048;-77
2021/11/27 09:28:41;;;;;;;1.38;1.27;;;;;;;19.74;43.97;98734.72;5061571;28;20740;-78
2021/11/27 09:31:07;;;;;;;1.20;1.13;;;;;;;19.78;43.89;98742.00;5065752;28;20052;-77
2021/11/27 09:33:32;;;;;;;1.60;1.30;;;;;;;19.79;43.90;98742.78;5061633;28;20045;-76
2021/11/27 09:38:24;;;;;;;1.67;1.40;;;;;;;19.75;44.09;98753.00;5062326;28;20038;-76
2021/11/27 09:40:52;;;;;;;2.90;1.60;;;;;;;19.74;44.12;98755.84;5062690;28;20044;-75
2021/11/27 09:43:19;;;;;;;1.63;1.52;;;;;;;19.70;44.02;98750.22;5062616;28;20064;-76
2021/11/27 09:45:46;;;;;;;1.75;1.48;;;;;;;19.68;43.92;98751.50;5061879;28;20453;-76
2021/11/27 09:48:13;;;;;;;2.35;1.60;;;;;;;19.69;44.02;98768.94;5061321;28;20098;-79
2021/11/27 09:50:40;;;;;;;2.17;1.70;;;;;;;19.65;44.03;98767.81;5059710;28;20032;-77
2021/11/27 09:53:06;;;;;;;1.85;1.67;;;;;;;19.59;44.12;98769.53;5059374;28;20044;-79
2021/11/27 09:55:32;;;;;;;2.17;1.75;;;;;;;19.66;43.97;98772.03;5057408;28;20624;-79
2021/11/27 09:57:57;;;;;;;2.17;1.80;;;;;;;19.59;44.07;98761.59;5057950;28;20039;-74
2021/11/27 10:00:23;;;;;;;2.72;1.88;;;;;;;19.65;44.25;98773.09;5055377;28;20113;-78
2021/11/27 10:02:57;;;;;;;3.03;1.58;;;;;;;19.67;44.01;98768.38;5071217;28;20055;-78
2021/11/27 10:05:24;;;;;;;2.10;1.67;;;;;;;19.76;43.90;98780.22;5054378;28;20044;-78
2021/11/27 10:07:52;;;;;;;1.90;1.60;;;;;;;19.71;43.96;98774.81;5061096;28;20040;-77
2021/11/27 10:10:19;;;;;;;2.47;1.60;;;;;;;19.76;43.71;98782.88;5061153;28;20040;-77
2021/11/27 10:12:44;;;;;;;2.20;1.63;;;;;;;19.74;43.75;98785.72;5059050;28;20247;-77
2021/11/27 10:15:11;;;;;;;3.55;1.60;;;;;;;19.63;43.99;98772.50;5059151;28;20205;-79
2021/11/27 10:17:37;;;;;;;1.33;1.23;;;;;;;19.63;44.05;98786.50;5057282;28;20036;-79
2021/11/27 10:20:06;;;;;;;1.58;1.48;;;;;;;19.63;44.04;98785.72;5060904;28;20063;-78
2021/11/27 10:22:37;;;;;;;1.70;1.40;;;;;;;19.60;44.11;98786.97;5062351;28;20122;-79
2021/11/27 10:25:23;;;;;;;3.42;1.63;;;;;;;19.53;44.32;98788.88;5062237;28;20394;-78
2021/11/27 10:27:51;;;;;;;1.83;1.50;;;;;;;19.52;44.28;98793.34;5056925;28;20053;-77
2021/11/27 10:30:17;;;;;;;4.88;1.80;;;;;;;19.46;44.28;98794.25;5061598;28;20048;-78
2021/11/27 10:32:45;;;;;;;3.35;1.90;;;;;;;19.47;44.28;98798.50;5056362;28;20048;-78
2021/11/27 10:35:17;;;;;;;1.88;1.38;;;;;;;19.46;44.21;98793.44;5073724;28;20453;-77
2021/11/27 10:37:48;;;;;;;2.08;1.63;;;;;;;19.44;44.29;98804.22;5061397;28;20036;-76
2021/11/27 10:40:21;;;;;;;2.83;1.55;;;;;;;19.41;44.41;98807.34;5063143;28;20360;-76
2021/11/27 10:42:49;;;;;;;3.08;1.42;;;;;;;19.40;44.36;98810.19;5060160;28;20198;-75
2021/11/27 10:45:20;;;;;;;1.77;1.45;;;;;;;19.40;44.50;98815.47;5061119;28;20040;-76
2021/11/27 10:47:48;;;;;;;2.47;1.77;;;;;;;19.37;44.30;98810.63;5059215;28;20055;-77
2021/11/27 10:50:19;;;;;;;2.22;1.30;;;;;;;19.38;44.27;98818.31;5074708;28;20582;-77
2021/11/27 10:52:51;;;;;;;2.45;1.42;;;;;;;19.33;44.32;98813.72;5054259;28;20036;-77
2021/11/27 10:55:23;;;;;;;1.95;1.40;;;;;;;19.36;44.20;98816.94;5058209;28;20454;-78
2021/11/27 10:57:52;;;;;;;2.08;1.25;;;;;;;19.33;44.28;98826.91;5076024;28;20028;-77
2021/11/27 11:00:30;;;;;;;1.93;1.53;;;;;;;19.32;44.25;98825.31;5060458;28;20090;-77
2021/11/27 11:02:56;;;;;;;1.80;1.40;;;;;;;19.30;44.20;98826.56;5058814;28;20580;-78
2021/11/27 11:05:36;;;;;;;1.88;1.42;;;;;;;19.33;44.25;98829.56;5058550;28;20105;-76
2021/11/27 11:08:02;;;;;;;;;;;;;;;19.39;44.18;98838.44;5059985;28;20052;-76
2021/11/27 11:10:33;;;;;;;1.80;1.42;;;;;;;19.45;44.07;98840.16;5058137;28;20000;-77
2021/11/27 11:13:10;;;;;;;1.95;1.20;;;;;;;19.47;43.97;98837.28;5056292;28;20098;-77
2021/11/27 11:15:47;;;;;;;1.60;1.30;;;;;;;19.54;43.99;98838.81;5058907;28;20040;-75
2021/11/27 11:18:26;;;;;;;2.88;1.38;;;;;;;19.57;43.90;98840.22;5060611;28;20056;-77
2021/11/27 11:20:53;;;;;;;3.00;1.30;;;;;;;19.65;43.79;98850.47;5074778;28;20060;-75
2021/11/27 11:23:23;;;;;;;1.75;1.20;;;;;;;19.68;43.82;98844.72;5072548;28;20028;-75
2021/11/27 11:26:00;;;;;;;2.10;1.50;;;;;;;19.68;43.93;98855.28;5054894;28;20040;-75
2021/11/27 11:28:29;;;;;;;2.33;1.92;;;;;;;19.71;43.92;98859.31;5058266;28;20039;-76
2021/11/27 11:31:01;;;;;;;1.40;1.13;;;;;;;19.73;43.85;98854.59;5057800;28;20067;-76
2021/11/27 11:33:27;;;;;;;1.15;0.90;;;;;;;19.71;43.98;98856.66;5060408;28;20040;-76
2021/11/27 11:35:54;;;;;;;2.53;1.13;;;;;;;19.71;44.15;98854.03;5087176;28;20071;-76
2021/11/27 11:38:20;;;;;;;1.42;1.20;;;;;;;19.74;44.05;98861.50;5054830;28;20525;-77
2021/11/27 11:40:47;;;;;;;1.77;1.25;;;;;;;19.74;44.04;98859.66;5057213;28;20474;-76
2021/11/27 11:43:13;;;;;;;1.17;1.10;;;;;;;19.74;44.00;98866.78;5059166;28;20121;-77